LFST/SXB METAR and TAF weather

Enter ICAO airport designator
Station Type Date Time Source
LFST METAR 2019/10/21 04:30 UTC NOAA

LFST 210430Z AUTO 18005KT CAVOK 14/14 Q1015 TEMPO 4000 BR BKN003


Station Type Date Time Source
LFST Decoded METAR 2019/10/21 04:30 UTC NOAA

Strasbourg, France (LFST) 48-33N 007-38E 154M
Oct 21, 2019 - 12:30 AM EDT / 2019.10.21 0430 UTC
Wind: from the S (180 degrees) at 6 MPH (5 KT):0
Visibility: greater than 7 mile(s):0
Temperature: 57 F (14 C)
Dew Point: 57 F (14 C)
Relative Humidity: 100%
Pressure (altimeter): 29.97 in. Hg (1015 hPa)
ob: LFST 210430Z AUTO 18005KT CAVOK 14/14 Q1015 TEMPO 4000 BR BKN003
cycle: 4

Station Type Date Time Source
LFST TAF 2019/10/20 21:20 UTC NOAA

TAF
AMD LFST 202113Z 2021/2118 30007KT 9999 FEW010 BKN100
TEMPO 2021/2024 4000 RA PROB30
TEMPO 2021/2022 27015G25KT PROB40
TEMPO 2022/2110 BKN003
BECMG 2100/2102 18010KT
TEMPO 2100/2110 -RA PROB30
TEMPO 2100/2106 4000 BR PROB40
TEMPO 2116/2118 -RA BKN007

Example: see airport list